createdAt,value
2018-06-11T00:00:27.672Z,641.90
2018-06-11T00:03:07.913Z,634.00
2018-06-11T00:05:47.573Z,627.67
2018-06-11T00:08:28.971Z,662.63
2018-06-11T00:11:08.494Z,663.90
2018-06-11T00:13:51.789Z,680.73
2018-06-11T00:16:32.315Z,701.83
2018-06-11T00:19:12.452Z,728.23
2018-06-11T00:21:53.394Z,823.00
2018-06-11T00:24:34.293Z,859.17
2018-06-11T00:30:06.608Z,999.90
2018-06-11T00:32:48.291Z,999.90
2018-06-11T00:35:29.252Z,999.90
2018-06-11T00:38:07.732Z,999.90
2018-06-11T00:40:46.550Z,999.90
2018-06-11T00:43:25.358Z,999.90
2018-06-11T00:46:04.417Z,999.90
2018-06-11T00:48:45.037Z,999.90
2018-06-11T00:51:32.891Z,999.90
2018-06-11T00:54:09.933Z,999.90
2018-06-11T00:56:49.534Z,999.90
2018-06-11T00:59:30.229Z,970.87
2018-06-11T01:02:09.451Z,999.90
2018-06-11T01:04:47.675Z,844.77
2018-06-11T01:07:29.033Z,948.27
2018-06-11T01:10:08.389Z,999.90
2018-06-11T01:12:49.998Z,999.90
2018-06-11T01:15:30.756Z,856.97
2018-06-11T01:18:10.037Z,993.67
2018-06-11T01:20:49.094Z,945.23
2018-06-11T01:23:27.690Z,983.07
2018-06-11T01:26:10.173Z,999.90
2018-06-11T01:28:47.469Z,998.73
2018-06-11T01:31:26.232Z,979.47
2018-06-11T01:34:05.211Z,999.90
2018-06-11T01:36:55.496Z,999.90
2018-06-11T01:39:35.351Z,999.90
2018-06-11T17:27:11.238Z,444.57
2018-06-11T17:30:07.063Z,268.87
2018-06-11T17:32:55.966Z,773.40
2018-06-11T17:35:40.336Z,941.03
2018-06-11T17:41:31.058Z,872.93
2018-06-11T17:44:15.622Z,946.87
2018-06-11T17:46:59.991Z,999.90
2018-06-11T17:49:43.924Z,862.97
2018-06-11T17:52:34.760Z,762.33
2018-06-11T17:55:32.297Z,862.20
2018-06-11T17:58:17.860Z,839.83
2018-06-11T18:01:05.702Z,882.43
2018-06-11T18:03:50.081Z,988.47
2018-06-11T18:06:38.618Z,999.90
2018-06-11T18:09:23.619Z,962.87
2018-06-11T18:12:22.540Z,999.90
2018-06-11T18:15:27.160Z,896.00
2018-06-11T18:18:43.685Z,811.67
2018-06-11T18:21:32.125Z,799.60
2018-06-11T18:24:14.506Z,821.47
2018-06-11T18:26:55.616Z,803.23
2018-06-11T18:29:36.263Z,914.67
2018-06-11T18:32:19.697Z,943.50
2018-06-11T18:35:01.220Z,889.03
2018-06-11T18:37:46.069Z,851.13
2018-06-11T18:40:26.862Z,738.77
2018-06-11T18:43:14.197Z,727.80
2018-06-11T18:45:58.521Z,817.23
2018-06-11T18:48:54.184Z,715.83
2018-06-11T18:51:38.199Z,914.20
2018-06-11T18:54:28.444Z,812.23
2018-06-11T18:57:23.062Z,800.20
2018-06-11T19:00:16.544Z,794.47
2018-06-11T19:03:32.200Z,720.30
2018-06-11T19:06:25.282Z,790.33
2018-06-11T19:09:20.829Z,852.50
2018-06-11T19:12:11.998Z,723.60
2018-06-11T19:15:06.256Z,656.97
2018-06-11T19:17:57.307Z,697.93
2018-06-11T19:20:46.959Z,716.10
2018-06-11T19:23:38.618Z,665.33
2018-06-11T19:26:23.502Z,599.77
2018-06-11T19:32:39.422Z,699.43
2018-06-11T19:35:33.446Z,638.73
2018-06-11T19:38:19.116Z,549.40
2018-06-11T19:41:09.722Z,658.63
2018-06-11T19:43:56.978Z,682.50
2018-06-11T19:49:58.294Z,699.57
2018-06-11T19:52:49.241Z,816.10
2018-06-11T19:55:36.438Z,837.77
2018-06-11T19:58:21.899Z,831.93
2018-06-11T20:04:21.223Z,821.50
2018-06-11T20:07:11.362Z,914.67
2018-06-11T20:10:17.680Z,967.27
2018-06-11T20:13:03.119Z,963.83
2018-06-11T20:16:02.110Z,829.40
2018-06-11T20:18:58.238Z,682.70
2018-06-11T20:21:50.377Z,481.47
2018-06-11T20:24:36.281Z,480.30
2018-06-11T20:27:25.563Z,542.47
2018-06-11T20:30:18.863Z,574.27
2018-06-11T20:33:18.011Z,631.20
2018-06-11T20:36:02.742Z,846.83
2018-06-11T20:38:47.843Z,826.20
2018-06-11T20:41:45.424Z,926.73
2018-06-11T20:45:45.603Z,998.93
2018-06-11T20:48:39.248Z,999.90
2018-06-11T20:52:38.529Z,999.90
2018-06-11T20:55:36.923Z,999.90
2018-06-11T20:58:36.193Z,911.43
2018-06-11T21:01:31.603Z,899.43
2018-06-11T21:07:26.240Z,890.97
2018-06-11T21:10:30.639Z,999.90
2018-06-11T21:16:28.417Z,999.90
2018-06-11T21:19:42.140Z,999.90
2018-06-11T21:22:31.838Z,999.90
2018-06-11T21:25:38.746Z,999.90
2018-06-11T21:28:43.028Z,999.90
2018-06-11T21:38:07.425Z,827.53
2018-06-11T21:41:15.306Z,937.53
2018-06-11T21:44:12.676Z,999.90
2018-06-11T21:47:10.623Z,999.90
2018-06-11T21:50:07.701Z,999.90
2018-06-11T21:53:10.582Z,999.90
2018-06-11T21:59:30.160Z,999.90
2018-06-11T22:06:01.782Z,999.90
2018-06-11T22:09:10.384Z,999.90
2018-06-11T22:34:26.571Z,999.90
2018-06-11T22:41:10.490Z,795.33
2018-06-11T22:43:56.742Z,780.37
2018-06-11T22:46:43.169Z,930.77
2018-06-11T22:49:27.908Z,847.60
2018-06-11T22:52:28.051Z,894.30
2018-06-11T22:55:13.955Z,735.27
2018-06-11T22:57:58.229Z,679.00
2018-06-11T23:00:52.547Z,579.73
2018-06-11T23:04:09.906Z,480.77
2018-06-11T23:10:21.486Z,497.83
2018-06-11T23:13:27.569Z,432.87
2018-06-11T23:16:16.725Z,518.13
2018-06-11T23:19:04.767Z,734.77
2018-06-11T23:21:48.085Z,709.40
2018-06-11T23:24:39.469Z,642.97
2018-06-11T23:27:34.964Z,594.53
2018-06-11T23:30:19.452Z,553.90
2018-06-11T23:33:05.326Z,550.33
2018-06-11T23:35:55.449Z,558.53
2018-06-11T23:39:01.206Z,455.33
2018-06-11T23:41:44.431Z,415.00
2018-06-11T23:44:37.430Z,469.80
2018-06-11T23:47:39.608Z,375.17
2018-06-11T23:50:30.631Z,369.73
2018-06-11T23:53:18.609Z,385.37
2018-06-11T23:56:07.864Z,360.57
2018-06-11T23:58:51.809Z,351.33
